createdAt,value
2022-12-22T00:01:29.030Z,2.33
2022-12-22T00:04:33.139Z,4.27
2022-12-22T00:07:37.118Z,3.67
2022-12-22T00:10:41.187Z,3.00
2022-12-22T00:13:45.698Z,3.80
2022-12-22T00:16:53.257Z,3.60
2022-12-22T00:19:57.210Z,2.87
2022-12-22T00:23:01.323Z,2.60
2022-12-22T00:26:05.801Z,3.37
2022-12-22T00:29:09.841Z,3.57
2022-12-22T00:32:15.580Z,4.47
2022-12-22T00:35:19.960Z,3.00
2022-12-22T00:38:32.111Z,2.80
2022-12-22T00:41:36.014Z,2.53
2022-12-22T00:44:40.053Z,2.20
2022-12-22T00:47:49.089Z,4.73
2022-12-22T00:50:55.128Z,4.00
2022-12-22T00:53:59.236Z,2.77
2022-12-22T00:57:03.702Z,3.03
2022-12-22T01:00:08.719Z,3.50
2022-12-22T01:03:14.436Z,3.57
2022-12-22T01:06:21.023Z,3.43
2022-12-22T01:09:25.143Z,2.80
2022-12-22T01:12:32.846Z,5.63
2022-12-22T01:15:39.506Z,4.03
2022-12-22T01:18:45.036Z,3.47
2022-12-22T01:21:49.390Z,5.33
2022-12-22T01:24:53.299Z,2.80
2022-12-22T01:27:57.238Z,3.83
2022-12-22T01:31:01.825Z,3.40
2022-12-22T01:34:06.972Z,4.47
2022-12-22T01:37:11.018Z,3.33
2022-12-22T01:40:15.324Z,3.80
2022-12-22T01:43:19.677Z,5.47
2022-12-22T01:46:37.941Z,4.47
2022-12-22T01:49:47.355Z,5.40
2022-12-22T01:52:54.742Z,4.37
2022-12-22T01:55:58.741Z,4.53
2022-12-22T01:59:06.620Z,4.17
2022-12-22T02:02:10.699Z,3.40
2022-12-22T02:05:19.095Z,3.70
2022-12-22T02:08:34.648Z,4.70
2022-12-22T02:11:48.495Z,4.37
2022-12-22T02:15:03.641Z,5.03
2022-12-22T02:18:19.277Z,3.30
2022-12-22T02:21:29.308Z,3.20
2022-12-22T02:24:44.772Z,3.50
2022-12-22T02:27:53.063Z,3.63
2022-12-22T02:30:58.344Z,5.07
2022-12-22T02:34:02.277Z,4.43
2022-12-22T02:37:12.532Z,3.80
2022-12-22T02:40:21.051Z,3.70
2022-12-22T02:43:33.312Z,3.40
2022-12-22T02:46:44.783Z,5.63
2022-12-22T02:49:57.112Z,3.27
2022-12-22T02:53:02.494Z,3.80
2022-12-22T02:56:06.497Z,5.27
2022-12-22T02:59:12.389Z,3.33
2022-12-22T03:02:16.364Z,4.23
2022-12-22T03:05:20.245Z,4.30
2022-12-22T03:08:24.422Z,5.60
2022-12-22T03:11:28.437Z,3.67
2022-12-22T03:14:33.731Z,3.80
2022-12-22T03:17:37.729Z,4.13
2022-12-22T03:20:41.856Z,4.63
2022-12-22T03:23:46.047Z,4.73
2022-12-22T03:26:33.573Z,3.93
2022-12-22T03:29:21.578Z,3.40
2022-12-22T03:32:08.031Z,3.93
2022-12-22T03:34:54.564Z,4.17
2022-12-22T03:37:40.956Z,3.50
2022-12-22T03:40:27.532Z,3.30
2022-12-22T03:43:32.449Z,4.30
2022-12-22T03:46:32.423Z,3.27
2022-12-22T03:49:19.582Z,3.53
2022-12-22T03:52:06.134Z,3.00
2022-12-22T03:54:52.522Z,6.30
2022-12-22T03:57:38.919Z,3.43
2022-12-22T04:00:25.537Z,3.73
2022-12-22T04:03:14.242Z,4.20
2022-12-22T04:06:01.123Z,3.80
2022-12-22T04:08:47.704Z,3.67
2022-12-22T04:11:51.561Z,3.37
2022-12-22T04:14:38.156Z,4.67
2022-12-22T04:17:24.565Z,4.13
2022-12-22T04:20:13.357Z,3.97
2022-12-22T04:22:59.744Z,3.70
2022-12-22T04:25:46.069Z,4.00
2022-12-22T04:28:32.459Z,4.17
2022-12-22T04:31:19.285Z,5.13
2022-12-22T04:34:05.993Z,7.57
2022-12-22T04:36:53.632Z,4.50
2022-12-22T04:39:40.286Z,4.40
2022-12-22T04:42:26.554Z,4.80
2022-12-22T04:45:12.904Z,6.07
2022-12-22T04:47:59.227Z,5.30
2022-12-22T04:50:45.643Z,4.57
2022-12-22T04:53:33.644Z,8.27
2022-12-22T04:56:20.261Z,4.90
2022-12-22T04:59:06.705Z,4.47
2022-12-22T05:01:53.293Z,6.03
2022-12-22T05:04:40.184Z,4.63
2022-12-22T05:07:26.594Z,7.00
2022-12-22T05:10:14.511Z,5.97
2022-12-22T05:13:01.038Z,5.10
2022-12-22T05:15:48.028Z,5.63
2022-12-22T05:18:34.763Z,5.33
2022-12-22T05:21:23.334Z,6.03
2022-12-22T05:24:10.135Z,6.20
2022-12-22T05:26:57.914Z,4.60
2022-12-22T05:29:44.298Z,5.17
2022-12-22T05:32:33.137Z,5.03
2022-12-22T05:35:20.747Z,4.73
2022-12-22T05:38:07.210Z,7.17
2022-12-22T05:40:58.255Z,6.17
2022-12-22T05:43:49.755Z,6.87
2022-12-22T05:46:36.441Z,4.80
2022-12-22T05:49:23.388Z,7.50
2022-12-22T05:52:09.715Z,7.47
2022-12-22T05:54:56.161Z,5.40
2022-12-22T05:57:43.545Z,6.07
2022-12-22T06:00:33.494Z,9.80
2022-12-22T06:03:20.152Z,8.07
2022-12-22T06:06:07.497Z,7.10
2022-12-22T06:08:53.928Z,7.20
2022-12-22T06:11:40.372Z,5.87
2022-12-22T06:14:26.703Z,5.17
2022-12-22T06:17:14.569Z,5.20
2022-12-22T06:20:01.313Z,4.17
2022-12-22T06:22:47.605Z,4.83
2022-12-22T06:25:34.302Z,5.03
2022-12-22T06:28:20.946Z,4.33
2022-12-22T06:31:07.433Z,3.93
2022-12-22T06:33:55.150Z,5.10
2022-12-22T06:36:41.851Z,3.87
2022-12-22T06:39:28.167Z,5.30
2022-12-22T06:42:31.812Z,5.13
2022-12-22T06:45:18.692Z,3.87
2022-12-22T06:48:05.779Z,4.80
2022-12-22T06:50:57.969Z,3.57
2022-12-22T06:53:44.573Z,3.97
2022-12-22T06:56:30.966Z,7.27
2022-12-22T06:59:17.275Z,3.50
2022-12-22T07:02:03.796Z,4.30
2022-12-22T07:04:50.747Z,4.23
2022-12-22T07:07:38.505Z,6.87
2022-12-22T07:10:44.911Z,5.23
2022-12-22T07:13:34.107Z,4.20
2022-12-22T07:16:21.032Z,5.97
2022-12-22T07:19:08.033Z,16.03
2022-12-22T07:21:54.374Z,10.83
2022-12-22T07:24:42.099Z,6.50
2022-12-22T07:27:28.864Z,19.20
2022-12-22T07:30:15.598Z,32.67
2022-12-22T07:33:02.022Z,40.47
2022-12-22T07:35:48.442Z,15.93
2022-12-22T07:38:36.979Z,15.00
2022-12-22T07:41:50.928Z,7.87
2022-12-22T07:44:37.579Z,6.23
2022-12-22T07:47:27.265Z,6.50
2022-12-22T07:50:26.114Z,6.13
2022-12-22T07:53:12.880Z,6.77
2022-12-22T07:56:03.467Z,7.00
2022-12-22T07:58:51.486Z,7.93
2022-12-22T08:01:38.317Z,6.20
2022-12-22T08:04:25.578Z,8.30
2022-12-22T08:07:12.137Z,11.10
2022-12-22T08:09:58.354Z,6.50
2022-12-22T08:12:45.122Z,15.50
2022-12-22T08:15:33.260Z,6.90
2022-12-22T08:18:19.896Z,7.00
2022-12-22T08:21:07.580Z,8.43
2022-12-22T08:23:54.275Z,11.73
2022-12-22T08:26:44.049Z,8.77
2022-12-22T08:29:34.724Z,7.80
2022-12-22T08:32:22.700Z,8.57
2022-12-22T08:35:11.056Z,8.07
2022-12-22T08:37:57.653Z,101.80
2022-12-22T08:40:46.324Z,8.67
2022-12-22T08:43:33.795Z,11.03
2022-12-22T08:46:20.228Z,10.23
2022-12-22T08:49:08.711Z,10.73
2022-12-22T08:51:55.743Z,10.37
2022-12-22T08:54:42.495Z,10.60
2022-12-22T08:57:28.933Z,10.10
2022-12-22T09:00:16.613Z,12.70
2022-12-22T09:03:03.468Z,10.93
2022-12-22T09:05:51.610Z,10.40
2022-12-22T09:08:37.900Z,10.10
2022-12-22T09:11:25.090Z,15.33
2022-12-22T09:14:12.365Z,8.43
2022-12-22T09:16:59.012Z,10.83
2022-12-22T09:19:45.790Z,21.07
2022-12-22T09:22:33.572Z,23.93
2022-12-22T09:25:20.302Z,18.73
2022-12-22T09:28:08.866Z,19.40
2022-12-22T09:30:55.604Z,10.03
2022-12-22T09:33:41.938Z,9.83
2022-12-22T09:36:30.826Z,23.40
2022-12-22T09:39:22.297Z,22.60
2022-12-22T09:42:16.271Z,13.13
2022-12-22T09:45:03.201Z,14.50
2022-12-22T09:47:53.704Z,12.67
2022-12-22T09:50:42.432Z,15.70
2022-12-22T09:53:28.853Z,13.83
2022-12-22T09:56:18.390Z,14.47
2022-12-22T09:59:11.391Z,13.87
2022-12-22T10:02:11.552Z,12.53
2022-12-22T10:05:11.464Z,10.10
2022-12-22T10:08:02.841Z,11.00
2022-12-22T10:10:55.199Z,11.43
2022-12-22T10:13:43.691Z,9.87
2022-12-22T10:16:30.580Z,13.93
2022-12-22T10:19:17.104Z,14.47
2022-12-22T10:22:30.404Z,14.93
2022-12-22T10:25:39.696Z,14.40
2022-12-22T10:28:40.360Z,14.30
2022-12-22T10:31:31.231Z,14.57
2022-12-22T10:34:20.316Z,18.03
2022-12-22T10:37:07.109Z,17.87
2022-12-22T10:39:53.834Z,16.50
2022-12-22T10:42:44.695Z,17.70
2022-12-22T10:45:31.128Z,19.83
2022-12-22T10:48:26.205Z,17.77
2022-12-22T10:51:14.823Z,16.40
2022-12-22T10:54:01.491Z,17.70
2022-12-22T10:57:00.860Z,17.50
2022-12-22T10:59:50.109Z,19.47
2022-12-22T11:02:38.900Z,19.20
2022-12-22T11:05:27.480Z,20.77
2022-12-22T11:08:18.620Z,20.70
2022-12-22T11:11:08.812Z,18.80
2022-12-22T11:14:06.803Z,18.07
2022-12-22T11:16:58.054Z,16.27
2022-12-22T11:20:03.907Z,19.37
2022-12-22T11:22:58.528Z,19.53
2022-12-22T11:25:56.527Z,19.97
2022-12-22T11:28:55.273Z,17.83
2022-12-22T11:32:03.341Z,21.67
2022-12-22T11:34:58.897Z,23.90
2022-12-22T11:37:51.482Z,23.37
2022-12-22T11:40:43.136Z,20.00
2022-12-22T11:43:40.771Z,20.10
2022-12-22T11:46:32.869Z,20.07
2022-12-22T11:49:38.984Z,22.93
2022-12-22T11:52:42.222Z,23.87
2022-12-22T11:55:37.063Z,23.03
2022-12-22T11:58:44.969Z,25.80
2022-12-22T12:01:59.644Z,22.63
2022-12-22T12:05:19.394Z,22.70
2022-12-22T12:08:11.035Z,28.77
2022-12-22T12:11:03.809Z,23.97
2022-12-22T12:14:02.006Z,26.57
2022-12-22T12:16:53.489Z,22.57
2022-12-22T12:20:14.032Z,24.57
2022-12-22T12:23:13.612Z,25.03
2022-12-22T12:26:08.350Z,29.50
2022-12-22T12:29:07.756Z,28.90
2022-12-22T12:31:59.311Z,23.73
2022-12-22T12:34:51.440Z,29.47
2022-12-22T12:37:39.504Z,25.50
2022-12-22T12:40:36.584Z,27.60
2022-12-22T12:43:24.499Z,26.10
2022-12-22T12:46:46.405Z,23.20
2022-12-22T12:49:57.754Z,25.30
2022-12-22T12:53:17.587Z,23.13
2022-12-22T12:56:09.695Z,20.47
2022-12-22T12:58:58.307Z,20.83
2022-12-22T13:01:59.653Z,19.70
2022-12-22T13:05:28.088Z,21.90
2022-12-22T13:08:23.348Z,17.83
2022-12-22T13:11:52.219Z,17.07
2022-12-22T13:14:58.688Z,19.53
2022-12-22T13:17:51.199Z,16.37
2022-12-22T13:20:39.656Z,15.77
2022-12-22T13:23:40.966Z,17.23
2022-12-22T13:26:39.710Z,15.03
2022-12-22T13:29:42.497Z,14.17
2022-12-22T13:32:34.519Z,14.67
2022-12-22T13:35:34.655Z,16.53
2022-12-22T13:38:31.270Z,13.10
2022-12-22T13:41:26.555Z,10.10
2022-12-22T13:44:17.447Z,12.83
2022-12-22T13:47:06.795Z,9.90
2022-12-22T13:50:08.394Z,16.47
2022-12-22T13:52:59.533Z,9.77
2022-12-22T13:55:47.892Z,6.23
2022-12-22T13:58:39.385Z,8.83
2022-12-22T14:01:26.199Z,8.97
2022-12-22T14:04:14.964Z,11.40
2022-12-22T14:07:11.702Z,7.47
2022-12-22T14:09:59.746Z,8.37
2022-12-22T14:12:48.015Z,10.53
2022-12-22T14:15:35.379Z,9.33
2022-12-22T14:18:26.654Z,8.33
2022-12-22T14:21:14.084Z,7.20
2022-12-22T14:24:00.670Z,6.63
2022-12-22T14:26:49.173Z,8.97
2022-12-22T14:29:36.107Z,10.93
2022-12-22T14:32:40.695Z,30.10
2022-12-22T14:35:31.679Z,35.57
2022-12-22T14:38:23.086Z,12.43
2022-12-22T14:41:38.624Z,10.53
2022-12-22T14:44:29.694Z,7.37
2022-12-22T14:47:19.718Z,8.53
2022-12-22T14:50:18.737Z,4.37
2022-12-22T14:53:06.722Z,10.30
2022-12-22T14:55:55.039Z,8.97
2022-12-22T14:58:43.575Z,9.13
2022-12-22T15:01:31.876Z,10.40
2022-12-22T15:04:20.379Z,4.13
2022-12-22T15:07:45.815Z,6.43
2022-12-22T15:10:22.745Z,5.73
2022-12-22T15:13:14.731Z,5.27
2022-12-22T15:16:01.605Z,6.40
2022-12-22T15:18:50.493Z,5.43
2022-12-22T15:21:37.044Z,8.27
2022-12-22T15:24:23.983Z,7.80
2022-12-22T15:27:10.711Z,7.57
2022-12-22T15:29:57.614Z,7.77
2022-12-22T15:32:44.113Z,6.23
2022-12-22T15:35:34.353Z,7.30
2022-12-22T15:38:23.834Z,7.83
2022-12-22T15:41:10.519Z,8.83
2022-12-22T15:43:58.754Z,7.53
2022-12-22T15:46:50.456Z,8.47
2022-12-22T15:49:36.920Z,10.63
2022-12-22T15:52:25.312Z,8.40
2022-12-22T15:55:15.757Z,10.43
2022-12-22T15:58:02.137Z,12.13
2022-12-22T16:00:48.678Z,12.10
2022-12-22T16:03:35.205Z,11.17
2022-12-22T16:06:22.008Z,11.37
2022-12-22T16:09:18.137Z,9.43
2022-12-22T16:12:04.930Z,10.00
2022-12-22T16:14:54.424Z,10.97
2022-12-22T16:17:41.198Z,10.70
2022-12-22T16:20:33.029Z,9.90
2022-12-22T16:23:26.705Z,13.83
2022-12-22T16:26:17.627Z,9.57
2022-12-22T16:29:04.230Z,9.77
2022-12-22T16:31:50.645Z,10.23
2022-12-22T16:34:37.538Z,10.90
2022-12-22T16:37:23.801Z,9.63
2022-12-22T16:40:10.997Z,10.63
2022-12-22T16:46:15.150Z,9.50
2022-12-22T16:49:02.792Z,10.50
2022-12-22T16:51:52.614Z,12.77
2022-12-22T16:54:39.279Z,12.63
2022-12-22T16:57:25.741Z,11.50
2022-12-22T17:00:18.394Z,14.40
2022-12-22T17:03:07.885Z,11.80
2022-12-22T17:05:58.676Z,12.67
2022-12-22T17:08:46.808Z,15.47
2022-12-22T17:11:34.511Z,10.30
2022-12-22T17:14:29.122Z,13.50
2022-12-22T17:17:18.778Z,12.23
2022-12-22T17:20:05.855Z,13.90
2022-12-22T17:22:56.749Z,12.47
2022-12-22T17:25:43.149Z,15.20
2022-12-22T17:28:30.044Z,16.80
2022-12-22T17:31:18.357Z,11.50
2022-12-22T17:34:14.893Z,12.80
2022-12-22T17:37:01.540Z,13.93
2022-12-22T17:39:51.418Z,13.70
2022-12-22T17:42:38.011Z,11.17
2022-12-22T17:45:24.444Z,14.17
2022-12-22T17:48:11.251Z,14.83
2022-12-22T17:50:59.053Z,12.40
2022-12-22T17:53:46.657Z,14.20
2022-12-22T17:56:33.128Z,16.20
2022-12-22T17:59:19.517Z,14.00
2022-12-22T18:02:06.293Z,13.40
2022-12-22T18:04:53.406Z,11.83
2022-12-22T18:07:43.263Z,13.33
2022-12-22T18:10:33.551Z,14.67
2022-12-22T18:13:24.306Z,15.03
2022-12-22T18:16:16.020Z,15.67
2022-12-22T18:19:02.825Z,22.73
2022-12-22T18:21:49.563Z,17.57
2022-12-22T18:24:37.380Z,27.70
2022-12-22T18:27:24.551Z,17.77
2022-12-22T18:30:17.831Z,19.50
2022-12-22T18:33:04.572Z,24.60
2022-12-22T18:35:50.907Z,19.73
2022-12-22T18:38:37.450Z,20.73
2022-12-22T18:41:26.912Z,21.17
2022-12-22T18:44:17.448Z,20.23
2022-12-22T18:47:04.154Z,23.07
2022-12-22T18:49:50.949Z,21.30
2022-12-22T18:52:38.141Z,18.53
2022-12-22T18:55:26.229Z,20.57
2022-12-22T18:58:15.878Z,22.57
2022-12-22T19:01:03.750Z,17.83
2022-12-22T19:03:51.392Z,21.00
2022-12-22T19:06:38.006Z,20.63
2022-12-22T19:09:26.958Z,18.70
2022-12-22T19:12:15.814Z,20.30
2022-12-22T19:15:06.364Z,20.20
2022-12-22T19:17:53.817Z,17.73
2022-12-22T19:20:40.150Z,19.27
2022-12-22T19:23:27.272Z,18.37
2022-12-22T19:26:21.686Z,19.40
2022-12-22T19:29:09.885Z,19.40
2022-12-22T19:31:57.635Z,20.03
2022-12-22T19:34:44.233Z,18.00
2022-12-22T19:37:30.580Z,21.10
2022-12-22T19:40:18.647Z,17.50
2022-12-22T19:43:05.080Z,18.73
2022-12-22T19:45:53.287Z,20.67
2022-12-22T19:48:41.111Z,16.63
2022-12-22T19:51:27.498Z,17.03
2022-12-22T19:54:13.964Z,17.37
2022-12-22T19:57:00.934Z,18.77
2022-12-22T19:59:49.886Z,17.30
2022-12-22T20:02:36.709Z,16.60
2022-12-22T20:05:32.413Z,15.53
2022-12-22T20:08:19.689Z,16.70
2022-12-22T20:11:13.296Z,18.70
2022-12-22T20:14:00.367Z,16.83
2022-12-22T20:16:47.066Z,15.50
2022-12-22T20:19:33.886Z,18.20
2022-12-22T20:22:23.254Z,15.27
2022-12-22T20:25:15.255Z,17.57
2022-12-22T20:28:02.110Z,15.57
2022-12-22T20:30:48.839Z,16.20
2022-12-22T20:33:36.011Z,13.77
2022-12-22T20:36:26.373Z,12.70
2022-12-22T20:39:16.430Z,16.57
2022-12-22T20:42:03.001Z,15.40
2022-12-22T20:45:03.160Z,15.20
2022-12-22T20:47:52.289Z,15.47
2022-12-22T20:50:39.073Z,16.90
2022-12-22T20:53:25.561Z,19.15
2022-12-22T20:56:22.618Z,18.07
2022-12-22T20:59:15.315Z,14.40
2022-12-22T21:02:02.239Z,16.63
2022-12-22T21:04:48.976Z,19.27
2022-12-22T21:07:35.689Z,16.57
2022-12-22T21:10:24.565Z,17.77
2022-12-22T21:13:13.451Z,13.93
2022-12-22T21:15:59.882Z,15.30
2022-12-22T21:18:46.314Z,14.60
2022-12-22T21:21:33.629Z,15.53
2022-12-22T21:24:20.115Z,16.17
2022-12-22T21:27:06.835Z,18.00
2022-12-22T21:29:54.626Z,16.57
2022-12-22T21:32:41.356Z,18.57
2022-12-22T21:35:31.776Z,14.50
2022-12-22T21:38:20.188Z,16.23
2022-12-22T21:41:06.647Z,17.80
2022-12-22T21:43:52.866Z,15.93
2022-12-22T21:46:41.084Z,14.97
2022-12-22T21:49:30.351Z,15.23
2022-12-22T21:52:17.075Z,16.53
2022-12-22T21:55:05.293Z,17.87
2022-12-22T21:57:51.647Z,17.67
2022-12-22T22:00:41.828Z,14.83
2022-12-22T22:03:30.039Z,16.53
2022-12-22T22:06:16.779Z,13.27
2022-12-22T22:09:05.136Z,13.93
2022-12-22T22:12:08.956Z,14.50
2022-12-22T22:14:55.570Z,15.93
2022-12-22T22:17:42.840Z,14.07
2022-12-22T22:20:32.798Z,12.20
2022-12-22T22:23:19.252Z,14.33
2022-12-22T22:26:06.331Z,14.50
2022-12-22T22:28:54.257Z,10.23
2022-12-22T22:31:41.621Z,13.87
2022-12-22T22:34:28.537Z,12.40
2022-12-22T22:37:16.204Z,12.27
2022-12-22T22:40:02.816Z,12.60
2022-12-22T22:42:49.711Z,13.20
2022-12-22T22:45:39.303Z,14.10
2022-12-22T22:48:25.619Z,13.00
2022-12-22T22:51:12.152Z,13.97
2022-12-22T22:54:00.294Z,11.63
2022-12-22T22:56:46.992Z,11.47
2022-12-22T22:59:33.944Z,9.70
2022-12-22T23:02:20.752Z,11.33
2022-12-22T23:05:08.317Z,10.53
2022-12-22T23:07:54.687Z,9.90
2022-12-22T23:10:48.717Z,12.33
2022-12-22T23:13:35.259Z,14.07
2022-12-22T23:16:21.982Z,11.03
2022-12-22T23:19:08.686Z,10.70
2022-12-22T23:21:55.161Z,8.73
2022-12-22T23:24:41.528Z,10.33
2022-12-22T23:27:29.335Z,8.13
2022-12-22T23:30:16.400Z,11.17
2022-12-22T23:33:02.983Z,9.97
2022-12-22T23:35:50.904Z,9.80
2022-12-22T23:38:37.388Z,9.03
2022-12-22T23:41:24.013Z,7.30
2022-12-22T23:44:11.861Z,8.47
2022-12-22T23:46:58.245Z,7.17
2022-12-22T23:49:45.143Z,8.30
2022-12-22T23:52:31.351Z,7.63
2022-12-22T23:55:18.172Z,6.90
2022-12-22T23:58:04.679Z,8.60
